sensor_id;sensor_type;location;lat;lon;timestamp;pressure;altitude;pressure_sealevel;temperature;humidity
31331;BME280;34067;39.548;-76.088;2022-08-07T00:00:21;102097.52;;;30.47;66.93
31331;BME280;34067;39.548;-76.088;2022-08-07T00:02:48;102094.41;;;30.53;66.82
31331;BME280;34067;39.548;-76.088;2022-08-07T00:05:16;102094.32;;;30.49;67.11
31331;BME280;34067;39.548;-76.088;2022-08-07T00:07:44;102096.54;;;31.08;67.29
31331;BME280;34067;39.548;-76.088;2022-08-07T00:10:12;102102.39;;;30.48;67.85
31331;BME280;34067;39.548;-76.088;2022-08-07T00:12:39;102110.39;;;30.64;67.82
31331;BME280;34067;39.548;-76.088;2022-08-07T00:15:09;102107.07;;;30.57;69.40
31331;BME280;34067;39.548;-76.088;2022-08-07T00:17:37;102102.08;;;30.07;69.29
31331;BME280;34067;39.548;-76.088;2022-08-07T00:20:07;102105.25;;;30.34;70.90
31331;BME280;34067;39.548;-76.088;2022-08-07T00:22:34;102102.12;;;30.71;70.23
31331;BME280;34067;39.548;-76.088;2022-08-07T00:25:04;102107.44;;;30.73;70.72
31331;BME280;34067;39.548;-76.088;2022-08-07T00:27:33;102107.47;;;30.62;71.06
31331;BME280;34067;39.548;-76.088;2022-08-07T00:30:00;102109.22;;;30.37;71.01
31331;BME280;34067;39.548;-76.088;2022-08-07T00:32:28;102112.71;;;30.20;72.65
31331;BME280;34067;39.548;-76.088;2022-08-07T00:34:56;102109.26;;;30.60;72.53
31331;BME280;34067;39.548;-76.088;2022-08-07T00:37:23;102117.04;;;30.43;73.00
31331;BME280;34067;39.548;-76.088;2022-08-07T00:39:51;102119.22;;;30.79;73.89
31331;BME280;34067;39.548;-76.088;2022-08-07T00:42:19;102126.51;;;29.97;75.39
31331;BME280;34067;39.548;-76.088;2022-08-07T00:44:48;102131.54;;;30.14;75.54
31331;BME280;34067;39.548;-76.088;2022-08-07T00:47:16;102129.65;;;29.58;77.44
31331;BME280;34067;39.548;-76.088;2022-08-07T00:49:45;102132.96;;;29.82;77.19
31331;BME280;34067;39.548;-76.088;2022-08-07T00:52:13;102139.80;;;29.63;77.52
31331;BME280;34067;39.548;-76.088;2022-08-07T00:54:41;102145.30;;;29.55;78.93
31331;BME280;34067;39.548;-76.088;2022-08-07T00:57:09;102148.70;;;29.68;78.75
31331;BME280;34067;39.548;-76.088;2022-08-07T00:59:37;102148.86;;;29.92;78.15
31331;BME280;34067;39.548;-76.088;2022-08-07T01:02:05;102148.29;;;29.84;79.08
31331;BME280;34067;39.548;-76.088;2022-08-07T01:04:34;102149.64;;;29.73;79.43
31331;BME280;34067;39.548;-76.088;2022-08-07T01:07:03;102146.41;;;29.87;81.20
31331;BME280;34067;39.548;-76.088;2022-08-07T01:09:31;102149.73;;;30.05;81.89
31331;BME280;34067;39.548;-76.088;2022-08-07T01:12:00;102153.88;;;29.08;82.23
31331;BME280;34067;39.548;-76.088;2022-08-07T01:14:28;102156.03;;;30.03;82.55
31331;BME280;34067;39.548;-76.088;2022-08-07T01:16:57;102155.42;;;29.77;82.41
31331;BME280;34067;39.548;-76.088;2022-08-07T01:19:26;102155.67;;;29.53;81.62
31331;BME280;34067;39.548;-76.088;2022-08-07T01:21:56;102159.54;;;29.28;83.00
31331;BME280;34067;39.548;-76.088;2022-08-07T01:24:25;102161.28;;;29.64;82.50
31331;BME280;34067;39.548;-76.088;2022-08-07T01:26:54;102160.99;;;29.29;82.29
31331;BME280;34067;39.548;-76.088;2022-08-07T01:29:24;102162.87;;;29.97;82.00
31331;BME280;34067;39.548;-76.088;2022-08-07T01:31:54;102167.22;;;29.75;82.38
31331;BME280;34067;39.548;-76.088;2022-08-07T01:34:22;102169.66;;;29.40;83.07
31331;BME280;34067;39.548;-76.088;2022-08-07T01:36:51;102175.47;;;29.21;83.44
31331;BME280;34067;39.548;-76.088;2022-08-07T01:39:19;102177.30;;;29.47;84.21
31331;BME280;34067;39.548;-76.088;2022-08-07T01:41:46;102177.61;;;29.37;84.05
31331;BME280;34067;39.548;-76.088;2022-08-07T01:44:14;102178.41;;;29.60;83.31
31331;BME280;34067;39.548;-76.088;2022-08-07T01:46:42;102180.59;;;29.70;83.32
31331;BME280;34067;39.548;-76.088;2022-08-07T01:49:11;102180.15;;;29.43;83.55
31331;BME280;34067;39.548;-76.088;2022-08-07T01:51:41;102182.87;;;29.41;84.21
31331;BME280;34067;39.548;-76.088;2022-08-07T01:54:11;102184.22;;;29.58;83.54
31331;BME280;34067;39.548;-76.088;2022-08-07T01:56:45;102189.01;;;29.64;83.23
31331;BME280;34067;39.548;-76.088;2022-08-07T01:59:19;102196.21;;;29.72;83.17
31331;BME280;34067;39.548;-76.088;2022-08-07T02:01:54;102193.34;;;30.36;82.57
31331;BME280;34067;39.548;-76.088;2022-08-07T02:04:27;102190.23;;;30.01;84.30
31331;BME280;34067;39.548;-76.088;2022-08-07T02:06:58;102187.84;;;29.45;84.77
31331;BME280;34067;39.548;-76.088;2022-08-07T02:09:29;102190.67;;;29.64;84.26
31331;BME280;34067;39.548;-76.088;2022-08-07T02:11:59;102191.69;;;29.77;84.14
31331;BME280;34067;39.548;-76.088;2022-08-07T02:14:28;102188.94;;;29.83;84.00
31331;BME280;34067;39.548;-76.088;2022-08-07T02:16:57;102184.55;;;29.96;82.27
31331;BME280;34067;39.548;-76.088;2022-08-07T02:19:26;102182.95;;;30.67;81.59
31331;BME280;34067;39.548;-76.088;2022-08-07T02:21:54;102187.15;;;29.99;80.65
31331;BME280;34067;39.548;-76.088;2022-08-07T02:24:23;102184.76;;;30.51;80.80
31331;BME280;34067;39.548;-76.088;2022-08-07T02:26:52;102183.21;;;30.62;79.80
31331;BME280;34067;39.548;-76.088;2022-08-07T02:29:21;102180.71;;;30.38;80.85
31331;BME280;34067;39.548;-76.088;2022-08-07T02:31:50;102182.17;;;30.45;81.32
31331;BME280;34067;39.548;-76.088;2022-08-07T02:34:18;102183.13;;;29.98;81.83
31331;BME280;34067;39.548;-76.088;2022-08-07T02:36:47;102184.65;;;29.98;82.87
31331;BME280;34067;39.548;-76.088;2022-08-07T02:39:17;102190.56;;;30.03;85.16
31331;BME280;34067;39.548;-76.088;2022-08-07T02:41:46;102190.12;;;29.18;87.26
31331;BME280;34067;39.548;-76.088;2022-08-07T02:44:14;102191.69;;;29.89;86.59
31331;BME280;34067;39.548;-76.088;2022-08-07T02:46:44;102187.98;;;29.49;86.67
31331;BME280;34067;39.548;-76.088;2022-08-07T02:49:13;102192.29;;;29.86;84.22
31331;BME280;34067;39.548;-76.088;2022-08-07T02:51:42;102195.21;;;29.59;86.48
31331;BME280;34067;39.548;-76.088;2022-08-07T02:54:12;102197.12;;;29.83;85.95
31331;BME280;34067;39.548;-76.088;2022-08-07T02:56:42;102195.21;;;30.24;83.99
31331;BME280;34067;39.548;-76.088;2022-08-07T02:59:16;102194.88;;;30.17;84.34
31331;BME280;34067;39.548;-76.088;2022-08-07T03:01:46;102192.70;;;29.59;85.45
31331;BME280;34067;39.548;-76.088;2022-08-07T03:04:15;102193.36;;;29.70;84.99
31331;BME280;34067;39.548;-76.088;2022-08-07T03:06:44;102195.07;;;29.78;85.92
31331;BME280;34067;39.548;-76.088;2022-08-07T03:09:14;102194.50;;;29.64;86.36
31331;BME280;34067;39.548;-76.088;2022-08-07T03:11:42;102194.90;;;29.18;87.00
31331;BME280;34067;39.548;-76.088;2022-08-07T03:14:11;102198.69;;;29.04;87.94
31331;BME280;34067;39.548;-76.088;2022-08-07T03:16:39;102199.43;;;29.28;87.54
31331;BME280;34067;39.548;-76.088;2022-08-07T03:19:07;102201.00;;;29.14;86.89
31331;BME280;34067;39.548;-76.088;2022-08-07T03:21:35;102205.84;;;29.64;86.85
31331;BME280;34067;39.548;-76.088;2022-08-07T03:24:04;102204.41;;;29.67;88.50
31331;BME280;34067;39.548;-76.088;2022-08-07T03:26:32;102202.45;;;29.11;89.28
31331;BME280;34067;39.548;-76.088;2022-08-07T03:29:02;102202.18;;;29.27;88.66
31331;BME280;34067;39.548;-76.088;2022-08-07T03:31:32;102209.54;;;29.12;87.35
31331;BME280;34067;39.548;-76.088;2022-08-07T03:34:02;102210.41;;;29.61;87.33
31331;BME280;34067;39.548;-76.088;2022-08-07T03:36:33;102212.70;;;29.11;87.41
31331;BME280;34067;39.548;-76.088;2022-08-07T03:39:04;102218.06;;;29.49;86.04
31331;BME280;34067;39.548;-76.088;2022-08-07T03:41:35;102220.97;;;29.69;85.55
31331;BME280;34067;39.548;-76.088;2022-08-07T03:44:04;102220.95;;;29.89;84.45
31331;BME280;34067;39.548;-76.088;2022-08-07T03:46:33;102223.79;;;29.73;84.93
31331;BME280;34067;39.548;-76.088;2022-08-07T03:49:01;102218.58;;;29.59;84.98
31331;BME280;34067;39.548;-76.088;2022-08-07T03:51:30;102217.91;;;29.46;84.56
31331;BME280;34067;39.548;-76.088;2022-08-07T03:54:00;102221.32;;;28.85;85.92
31331;BME280;34067;39.548;-76.088;2022-08-07T03:56:29;102221.46;;;29.61;84.91
31331;BME280;34067;39.548;-76.088;2022-08-07T03:58:57;102222.34;;;29.02;84.72
31331;BME280;34067;39.548;-76.088;2022-08-07T04:01:26;102220.32;;;29.03;83.44
31331;BME280;34067;39.548;-76.088;2022-08-07T04:03:55;102221.21;;;28.86;80.57
31331;BME280;34067;39.548;-76.088;2022-08-07T04:06:23;102223.27;;;29.01;81.11
31331;BME280;34067;39.548;-76.088;2022-08-07T04:08:51;102228.57;;;28.74;81.54
31331;BME280;34067;39.548;-76.088;2022-08-07T04:11:20;102230.21;;;28.71;80.15
31331;BME280;34067;39.548;-76.088;2022-08-07T04:13:49;102232.09;;;29.01;78.06
31331;BME280;34067;39.548;-76.088;2022-08-07T04:16:17;102235.80;;;29.39;74.77
31331;BME280;34067;39.548;-76.088;2022-08-07T04:18:46;102233.99;;;29.33;72.07
31331;BME280;34067;39.548;-76.088;2022-08-07T04:21:14;102234.49;;;28.99;70.76
31331;BME280;34067;39.548;-76.088;2022-08-07T04:23:44;102239.23;;;28.76;71.10
31331;BME280;34067;39.548;-76.088;2022-08-07T04:26:13;102233.75;;;29.35;68.87
31331;BME280;34067;39.548;-76.088;2022-08-07T04:28:42;102230.62;;;29.18;68.73
31331;BME280;34067;39.548;-76.088;2022-08-07T04:31:10;102235.17;;;29.03;67.60
31331;BME280;34067;39.548;-76.088;2022-08-07T04:33:39;102234.00;;;29.01;66.91
31331;BME280;34067;39.548;-76.088;2022-08-07T04:36:08;102235.53;;;29.39;66.99
31331;BME280;34067;39.548;-76.088;2022-08-07T04:38:36;102229.66;;;29.35;66.80
31331;BME280;34067;39.548;-76.088;2022-08-07T04:41:06;102225.25;;;29.54;67.09
31331;BME280;34067;39.548;-76.088;2022-08-07T04:43:36;102226.50;;;28.67;67.40
31331;BME280;34067;39.548;-76.088;2022-08-07T04:46:09;102223.33;;;28.61;67.24
31331;BME280;34067;39.548;-76.088;2022-08-07T04:48:45;102219.66;;;28.75;67.07
31331;BME280;34067;39.548;-76.088;2022-08-07T04:51:23;102219.03;;;28.66;65.97
31331;BME280;34067;39.548;-76.088;2022-08-07T04:53:58;102214.35;;;28.57;64.52
31331;BME280;34067;39.548;-76.088;2022-08-07T04:56:34;102212.22;;;28.75;65.05
31331;BME280;34067;39.548;-76.088;2022-08-07T04:59:09;102208.52;;;28.45;64.71
31331;BME280;34067;39.548;-76.088;2022-08-07T05:03:22;102205.52;;;28.80;63.50
31331;BME280;34067;39.548;-76.088;2022-08-07T05:05:59;102203.81;;;28.65;63.90
31331;BME280;34067;39.548;-76.088;2022-08-07T05:08:41;102201.89;;;28.82;64.39
31331;BME280;34067;39.548;-76.088;2022-08-07T05:11:14;102200.12;;;29.27;63.26
31331;BME280;34067;39.548;-76.088;2022-08-07T05:13:48;102200.75;;;28.73;62.95
31331;BME280;34067;39.548;-76.088;2022-08-07T05:16:20;102192.15;;;28.71;62.54
31331;BME280;34067;39.548;-76.088;2022-08-07T05:18:53;102191.32;;;28.76;62.30
31331;BME280;34067;39.548;-76.088;2022-08-07T05:21:26;102190.81;;;29.01;61.91
31331;BME280;34067;39.548;-76.088;2022-08-07T05:23:59;102190.96;;;28.80;62.01
31331;BME280;34067;39.548;-76.088;2022-08-07T05:26:30;102188.68;;;28.44;62.92
31331;BME280;34067;39.548;-76.088;2022-08-07T05:29:02;102186.06;;;28.49;62.88
31331;BME280;34067;39.548;-76.088;2022-08-07T05:31:33;102189.42;;;28.28;63.15
31331;BME280;34067;39.548;-76.088;2022-08-07T05:34:02;102190.25;;;28.32;63.49
31331;BME280;34067;39.548;-76.088;2022-08-07T05:36:31;102186.79;;;28.57;63.96
31331;BME280;34067;39.548;-76.088;2022-08-07T05:39:00;102176.67;;;28.71;63.74
31331;BME280;34067;39.548;-76.088;2022-08-07T05:41:29;102177.44;;;28.75;63.71
31331;BME280;34067;39.548;-76.088;2022-08-07T05:43:57;102176.48;;;28.33;63.79
31331;BME280;34067;39.548;-76.088;2022-08-07T05:46:26;102169.92;;;28.08;61.79
31331;BME280;34067;39.548;-76.088;2022-08-07T05:48:54;102171.96;;;28.98;61.23
31331;BME280;34067;39.548;-76.088;2022-08-07T05:51:23;102173.62;;;29.06;60.72
31331;BME280;34067;39.548;-76.088;2022-08-07T05:53:51;102175.48;;;28.33;60.04
31331;BME280;34067;39.548;-76.088;2022-08-07T05:56:21;102172.44;;;28.77;59.44
31331;BME280;34067;39.548;-76.088;2022-08-07T05:58:50;102172.16;;;28.66;59.38
31331;BME280;34067;39.548;-76.088;2022-08-07T06:01:19;102174.26;;;28.74;59.62
31331;BME280;34067;39.548;-76.088;2022-08-07T06:03:52;102169.27;;;28.29;58.60
31331;BME280;34067;39.548;-76.088;2022-08-07T06:06:20;102169.30;;;28.50;58.70
31331;BME280;34067;39.548;-76.088;2022-08-07T06:08:50;102165.26;;;28.76;58.07
31331;BME280;34067;39.548;-76.088;2022-08-07T06:11:19;102167.32;;;28.42;58.89
31331;BME280;34067;39.548;-76.088;2022-08-07T06:13:46;102170.47;;;28.48;58.85
31331;BME280;34067;39.548;-76.088;2022-08-07T06:16:15;102165.68;;;28.92;59.07
31331;BME280;34067;39.548;-76.088;2022-08-07T06:18:43;102167.01;;;28.90;58.52
31331;BME280;34067;39.548;-76.088;2022-08-07T06:21:13;102171.42;;;28.32;58.60
31331;BME280;34067;39.548;-76.088;2022-08-07T06:23:43;102172.50;;;28.59;58.50
31331;BME280;34067;39.548;-76.088;2022-08-07T06:26:12;102168.87;;;28.80;58.38
31331;BME280;34067;39.548;-76.088;2022-08-07T06:28:49;102165.32;;;28.81;58.29
31331;BME280;34067;39.548;-76.088;2022-08-07T06:31:18;102163.82;;;28.78;58.49
31331;BME280;34067;39.548;-76.088;2022-08-07T06:33:46;102164.48;;;28.54;58.92
31331;BME280;34067;39.548;-76.088;2022-08-07T06:36:14;102166.39;;;29.05;58.35
31331;BME280;34067;39.548;-76.088;2022-08-07T06:38:43;102167.83;;;29.19;58.21
31331;BME280;34067;39.548;-76.088;2022-08-07T06:41:16;102168.97;;;28.93;58.75
31331;BME280;34067;39.548;-76.088;2022-08-07T06:43:46;102165.62;;;28.83;58.99
31331;BME280;34067;39.548;-76.088;2022-08-07T06:46:15;102165.82;;;28.93;59.10
31331;BME280;34067;39.548;-76.088;2022-08-07T06:48:44;102163.37;;;28.89;59.20
31331;BME280;34067;39.548;-76.088;2022-08-07T06:51:16;102162.18;;;29.21;58.94
31331;BME280;34067;39.548;-76.088;2022-08-07T06:53:44;102161.40;;;29.84;59.86
31331;BME280;34067;39.548;-76.088;2022-08-07T06:56:14;102160.09;;;29.48;59.92
31331;BME280;34067;39.548;-76.088;2022-08-07T06:58:46;102161.41;;;28.97;60.21
31331;BME280;34067;39.548;-76.088;2022-08-07T07:01:16;102157.66;;;29.69;60.97
31331;BME280;34067;39.548;-76.088;2022-08-07T07:03:44;102158.64;;;28.61;61.53
31331;BME280;34067;39.548;-76.088;2022-08-07T07:06:12;102159.12;;;29.09;62.84
31331;BME280;34067;39.548;-76.088;2022-08-07T07:08:40;102158.41;;;28.98;63.62
31331;BME280;34067;39.548;-76.088;2022-08-07T07:11:08;102159.24;;;29.01;63.76
31331;BME280;34067;39.548;-76.088;2022-08-07T07:13:38;102154.16;;;29.16;63.54
31331;BME280;34067;39.548;-76.088;2022-08-07T07:16:13;102148.43;;;28.90;63.33
31331;BME280;34067;39.548;-76.088;2022-08-07T07:18:44;102145.47;;;28.44;63.48
31331;BME280;34067;39.548;-76.088;2022-08-07T07:21:18;102142.07;;;29.25;63.06
31331;BME280;34067;39.548;-76.088;2022-08-07T07:23:47;102140.08;;;29.21;63.32
31331;BME280;34067;39.548;-76.088;2022-08-07T07:26:19;102137.11;;;28.42;64.15
31331;BME280;34067;39.548;-76.088;2022-08-07T07:28:53;102134.08;;;28.76;64.77
31331;BME280;34067;39.548;-76.088;2022-08-07T07:31:26;102132.11;;;28.72;64.55
31331;BME280;34067;39.548;-76.088;2022-08-07T07:34:04;102129.88;;;28.82;65.23
31331;BME280;34067;39.548;-76.088;2022-08-07T07:36:34;102131.28;;;29.17;65.83
31331;BME280;34067;39.548;-76.088;2022-08-07T07:39:05;102134.87;;;28.14;66.55
31331;BME280;34067;39.548;-76.088;2022-08-07T07:41:34;102136.53;;;29.15;66.67
31331;BME280;34067;39.548;-76.088;2022-08-07T07:44:05;102141.13;;;29.37;66.73
31331;BME280;34067;39.548;-76.088;2022-08-07T07:46:36;102144.04;;;28.42;66.97
31331;BME280;34067;39.548;-76.088;2022-08-07T07:49:08;102143.17;;;28.29;67.54
31331;BME280;34067;39.548;-76.088;2022-08-07T07:51:38;102144.50;;;28.58;67.18
31331;BME280;34067;39.548;-76.088;2022-08-07T07:54:08;102146.11;;;28.68;67.05
31331;BME280;34067;39.548;-76.088;2022-08-07T07:56:40;102146.90;;;28.85;66.62
31331;BME280;34067;39.548;-76.088;2022-08-07T07:59:10;102148.18;;;28.70;67.16
31331;BME280;34067;39.548;-76.088;2022-08-07T08:01:43;102148.12;;;28.77;67.28
31331;BME280;34067;39.548;-76.088;2022-08-07T08:04:12;102146.79;;;28.86;66.96
31331;BME280;34067;39.548;-76.088;2022-08-07T08:06:42;102149.58;;;29.10;67.91
31331;BME280;34067;39.548;-76.088;2022-08-07T08:09:13;102147.34;;;28.81;67.69
31331;BME280;34067;39.548;-76.088;2022-08-07T08:11:43;102147.97;;;28.86;67.26
31331;BME280;34067;39.548;-76.088;2022-08-07T08:14:11;102145.78;;;29.03;68.90
31331;BME280;34067;39.548;-76.088;2022-08-07T08:16:42;102141.15;;;29.28;69.54
31331;BME280;34067;39.548;-76.088;2022-08-07T08:19:14;102140.10;;;28.95;69.67
31331;BME280;34067;39.548;-76.088;2022-08-07T08:21:47;102141.07;;;28.82;71.13
31331;BME280;34067;39.548;-76.088;2022-08-07T08:24:17;102140.33;;;28.07;71.74
31331;BME280;34067;39.548;-76.088;2022-08-07T08:26:45;102139.41;;;28.31;72.87
31331;BME280;34067;39.548;-76.088;2022-08-07T08:29:15;102139.97;;;28.65;73.25
31331;BME280;34067;39.548;-76.088;2022-08-07T08:31:44;102131.76;;;27.88;73.10
31331;BME280;34067;39.548;-76.088;2022-08-07T08:34:13;102131.77;;;28.42;75.03
31331;BME280;34067;39.548;-76.088;2022-08-07T08:36:41;102128.38;;;28.59;75.59
31331;BME280;34067;39.548;-76.088;2022-08-07T08:39:10;102122.21;;;27.94;76.08
31331;BME280;34067;39.548;-76.088;2022-08-07T08:41:45;102121.89;;;28.41;76.17
31331;BME280;34067;39.548;-76.088;2022-08-07T08:44:21;102119.77;;;28.45;76.11
31331;BME280;34067;39.548;-76.088;2022-08-07T08:46:58;102117.27;;;28.34;74.62
31331;BME280;34067;39.548;-76.088;2022-08-07T08:49:38;102118.27;;;28.03;77.39
31331;BME280;34067;39.548;-76.088;2022-08-07T08:52:14;102120.65;;;27.92;78.65
31331;BME280;34067;39.548;-76.088;2022-08-07T08:54:50;102121.37;;;27.83;79.59
31331;BME280;34067;39.548;-76.088;2022-08-07T08:57:27;102124.05;;;27.67;80.10
31331;BME280;34067;39.548;-76.088;2022-08-07T09:00:01;102125.76;;;27.56;78.68
31331;BME280;34067;39.548;-76.088;2022-08-07T09:02:40;102121.82;;;27.83;78.28
31331;BME280;34067;39.548;-76.088;2022-08-07T09:05:32;102121.25;;;28.44;76.17
31331;BME280;34067;39.548;-76.088;2022-08-07T09:08:12;102129.63;;;28.24;76.80
31331;BME280;34067;39.548;-76.088;2022-08-07T09:11:00;102124.71;;;28.36;76.23
31331;BME280;34067;39.548;-76.088;2022-08-07T09:13:38;102121.74;;;28.39;76.27
31331;BME280;34067;39.548;-76.088;2022-08-07T09:16:15;102120.09;;;28.66;75.58
31331;BME280;34067;39.548;-76.088;2022-08-07T09:21:53;102116.40;;;27.66;75.44
31331;BME280;34067;39.548;-76.088;2022-08-07T09:24:38;102116.14;;;28.51;75.58
31331;BME280;34067;39.548;-76.088;2022-08-07T09:27:21;102117.04;;;28.06;75.33
31331;BME280;34067;39.548;-76.088;2022-08-07T09:29:56;102113.86;;;28.56;74.84
31331;BME280;34067;39.548;-76.088;2022-08-07T09:32:45;102117.64;;;28.14;74.46
31331;BME280;34067;39.548;-76.088;2022-08-07T09:35:25;102120.75;;;28.36;73.74
31331;BME280;34067;39.548;-76.088;2022-08-07T09:38:01;102118.27;;;27.94;74.67
31331;BME280;34067;39.548;-76.088;2022-08-07T09:40:39;102122.31;;;28.67;73.48
31331;BME280;34067;39.548;-76.088;2022-08-07T09:43:22;102123.71;;;28.22;74.63
31331;BME280;34067;39.548;-76.088;2022-08-07T09:46:01;102125.56;;;27.72;74.15
31331;BME280;34067;39.548;-76.088;2022-08-07T09:48:39;102130.42;;;28.13;74.13
31331;BME280;34067;39.548;-76.088;2022-08-07T09:51:27;102128.88;;;28.02;74.33
31331;BME280;34067;39.548;-76.088;2022-08-07T09:54:00;102131.51;;;28.20;74.75
31331;BME280;34067;39.548;-76.088;2022-08-07T09:56:48;102128.42;;;27.92;74.27
31331;BME280;34067;39.548;-76.088;2022-08-07T09:59:40;102132.30;;;28.10;74.94
31331;BME280;34067;39.548;-76.088;2022-08-07T10:02:38;102133.94;;;27.76;73.87
31331;BME280;34067;39.548;-76.088;2022-08-07T10:05:33;102135.21;;;28.11;73.50
31331;BME280;34067;39.548;-76.088;2022-08-07T10:08:14;102134.91;;;27.93;72.92
31331;BME280;34067;39.548;-76.088;2022-08-07T10:10:56;102137.55;;;27.79;74.02
31331;BME280;34067;39.548;-76.088;2022-08-07T10:13:49;102144.25;;;28.28;73.84
31331;BME280;34067;39.548;-76.088;2022-08-07T10:16:34;102149.41;;;28.29;73.48
31331;BME280;34067;39.548;-76.088;2022-08-07T10:19:23;102160.30;;;27.54;73.22
31331;BME280;34067;39.548;-76.088;2022-08-07T10:22:11;102163.07;;;28.12;72.76
31331;BME280;34067;39.548;-76.088;2022-08-07T10:25:08;102166.65;;;28.07;72.80
31331;BME280;34067;39.548;-76.088;2022-08-07T10:27:52;102170.84;;;27.93;72.94
31331;BME280;34067;39.548;-76.088;2022-08-07T10:30:31;102175.97;;;27.87;73.18
31331;BME280;34067;39.548;-76.088;2022-08-07T10:33:16;102179.14;;;27.37;73.42
31331;BME280;34067;39.548;-76.088;2022-08-07T10:35:59;102179.68;;;28.08;72.49
31331;BME280;34067;39.548;-76.088;2022-08-07T10:38:47;102179.21;;;28.32;71.87
31331;BME280;34067;39.548;-76.088;2022-08-07T10:41:24;102183.63;;;28.46;72.45
31331;BME280;34067;39.548;-76.088;2022-08-07T10:44:05;102182.59;;;27.74;72.74
31331;BME280;34067;39.548;-76.088;2022-08-07T10:46:40;102185.56;;;27.32;74.31
31331;BME280;34067;39.548;-76.088;2022-08-07T10:49:18;102190.98;;;27.80;74.27
31331;BME280;34067;39.548;-76.088;2022-08-07T10:51:55;102190.67;;;27.32;74.84
31331;BME280;34067;39.548;-76.088;2022-08-07T10:54:34;102189.29;;;28.38;74.52
31331;BME280;34067;39.548;-76.088;2022-08-07T10:57:11;102190.17;;;28.03;74.46
31331;BME280;34067;39.548;-76.088;2022-08-07T11:00:02;102190.60;;;27.63;74.38
31331;BME280;34067;39.548;-76.088;2022-08-07T11:02:38;102193.83;;;27.84;73.86
31331;BME280;34067;39.548;-76.088;2022-08-07T11:05:21;102196.89;;;28.31;73.87
31331;BME280;34067;39.548;-76.088;2022-08-07T11:08:04;102194.38;;;27.75;74.33
31331;BME280;34067;39.548;-76.088;2022-08-07T11:10:42;102197.58;;;27.69;74.35
31331;BME280;34067;39.548;-76.088;2022-08-07T11:13:17;102201.04;;;28.26;74.04
31331;BME280;34067;39.548;-76.088;2022-08-07T11:15:51;102204.11;;;27.65;74.39
31331;BME280;34067;39.548;-76.088;2022-08-07T11:18:28;102201.38;;;28.07;74.19
31331;BME280;34067;39.548;-76.088;2022-08-07T11:21:05;102198.82;;;27.70;74.48
31331;BME280;34067;39.548;-76.088;2022-08-07T11:23:41;102200.93;;;27.97;75.35
31331;BME280;34067;39.548;-76.088;2022-08-07T11:26:20;102201.27;;;28.08;74.77
31331;BME280;34067;39.548;-76.088;2022-08-07T11:28:57;102197.19;;;27.54;75.01
31331;BME280;34067;39.548;-76.088;2022-08-07T11:31:38;102196.48;;;28.09;74.76
31331;BME280;34067;39.548;-76.088;2022-08-07T11:34:16;102199.63;;;27.92;74.19
31331;BME280;34067;39.548;-76.088;2022-08-07T11:36:57;102204.29;;;28.07;72.66
31331;BME280;34067;39.548;-76.088;2022-08-07T11:39:53;102204.76;;;27.88;72.90
31331;BME280;34067;39.548;-76.088;2022-08-07T11:42:38;102201.98;;;27.28;75.07
31331;BME280;34067;39.548;-76.088;2022-08-07T11:45:19;102203.38;;;27.21;77.20
31331;BME280;34067;39.548;-76.088;2022-08-07T11:48:11;102203.30;;;28.13;74.85
31331;BME280;34067;39.548;-76.088;2022-08-07T11:50:52;102208.01;;;27.64;75.07
31331;BME280;34067;39.548;-76.088;2022-08-07T11:53:36;102203.90;;;27.70;74.00
31331;BME280;34067;39.548;-76.088;2022-08-07T11:56:24;102205.70;;;27.96;74.30
31331;BME280;34067;39.548;-76.088;2022-08-07T11:59:08;102206.82;;;27.76;73.47
31331;BME280;34067;39.548;-76.088;2022-08-07T12:01:47;102207.09;;;27.80;73.71
31331;BME280;34067;39.548;-76.088;2022-08-07T12:04:34;102206.70;;;28.80;73.21
31331;BME280;34067;39.548;-76.088;2022-08-07T12:07:12;102206.83;;;28.40;74.70
31331;BME280;34067;39.548;-76.088;2022-08-07T12:09:48;102205.15;;;27.91;74.85
31331;BME280;34067;39.548;-76.088;2022-08-07T12:12:23;102200.00;;;27.86;73.58
31331;BME280;34067;39.548;-76.088;2022-08-07T12:14:58;102199.50;;;28.17;73.80
31331;BME280;34067;39.548;-76.088;2022-08-07T12:17:37;102201.18;;;27.78;74.51
31331;BME280;34067;39.548;-76.088;2022-08-07T12:20:16;102197.93;;;28.07;73.13
31331;BME280;34067;39.548;-76.088;2022-08-07T12:23:08;102199.99;;;28.38;71.98
31331;BME280;34067;39.548;-76.088;2022-08-07T12:25:47;102197.19;;;27.89;72.78
31331;BME280;34067;39.548;-76.088;2022-08-07T12:28:22;102196.34;;;28.29;72.14
31331;BME280;34067;39.548;-76.088;2022-08-07T12:30:54;102196.94;;;27.54;72.66
31331;BME280;34067;39.548;-76.088;2022-08-07T12:33:25;102203.41;;;27.83;73.42
31331;BME280;34067;39.548;-76.088;2022-08-07T12:35:55;102202.55;;;27.87;73.10
31331;BME280;34067;39.548;-76.088;2022-08-07T12:38:24;102202.62;;;27.90;73.35
31331;BME280;34067;39.548;-76.088;2022-08-07T12:40:53;102202.19;;;27.98;73.01
31331;BME280;34067;39.548;-76.088;2022-08-07T12:43:28;102201.72;;;27.65;73.83
31331;BME280;34067;39.548;-76.088;2022-08-07T12:46:07;102203.26;;;27.96;73.19
31331;BME280;34067;39.548;-76.088;2022-08-07T12:48:46;102206.06;;;28.69;72.86
31331;BME280;34067;39.548;-76.088;2022-08-07T12:51:22;102204.97;;;28.59;72.02
31331;BME280;34067;39.548;-76.088;2022-08-07T12:53:56;102202.89;;;28.81;71.80
31331;BME280;34067;39.548;-76.088;2022-08-07T12:56:30;102205.58;;;28.57;72.31
31331;BME280;34067;39.548;-76.088;2022-08-07T12:59:01;102200.84;;;28.26;72.94
31331;BME280;34067;39.548;-76.088;2022-08-07T13:01:41;102202.05;;;28.41;73.33
31331;BME280;34067;39.548;-76.088;2022-08-07T13:05:31;102203.73;;;29.06;72.81